createdAt,value
2023-06-21T00:02:26.169Z,101390.28
2023-06-21T00:04:56.867Z,101394.13
2023-06-21T00:07:25.188Z,101394.78
2023-06-21T00:09:53.073Z,101399.09
2023-06-21T00:12:21.688Z,101391.88
2023-06-21T00:14:48.428Z,101390.38
2023-06-21T00:17:15.027Z,101385.75
2023-06-21T00:19:41.595Z,101384.19
2023-06-21T00:22:08.576Z,101379.03
2023-06-21T00:24:35.272Z,101380.50
2023-06-21T00:27:02.014Z,101376.22
2023-06-21T00:29:28.834Z,101383.53
2023-06-21T00:31:55.461Z,101389.72
2023-06-21T00:34:22.112Z,101385.13
2023-06-21T00:36:48.653Z,101386.56
2023-06-21T00:39:15.924Z,101397.06
2023-06-21T00:41:42.845Z,101403.47
2023-06-21T00:44:09.566Z,101408.13
2023-06-21T00:46:36.229Z,101403.47
2023-06-21T00:49:05.269Z,101403.81
2023-06-21T00:51:34.074Z,101405.28
2023-06-21T00:54:01.154Z,101405.97
2023-06-21T00:56:27.798Z,101405.88
2023-06-21T00:58:54.310Z,101412.06
2023-06-21T01:01:21.509Z,101421.63
2023-06-21T01:03:48.247Z,101423.56
2023-06-21T01:06:36.191Z,101427.50
2023-06-21T01:09:06.097Z,101435.28
2023-06-21T01:11:45.308Z,101437.16
2023-06-21T01:14:36.938Z,101433.56
2023-06-21T01:17:06.769Z,101432.78
2023-06-21T01:19:52.118Z,101430.78
2023-06-21T01:22:21.629Z,101434.81
2023-06-21T01:25:08.074Z,101433.09
2023-06-21T01:28:16.839Z,101443.00
2023-06-21T01:30:46.715Z,101451.91
2023-06-21T01:33:14.156Z,101446.06
2023-06-21T01:35:42.346Z,101436.94
2023-06-21T01:38:08.922Z,101449.09
2023-06-21T01:40:38.588Z,101446.72
2023-06-21T01:43:06.948Z,101448.97
2023-06-21T01:45:33.946Z,101452.13
2023-06-21T01:48:03.704Z,101453.72
2023-06-21T01:50:32.438Z,101448.97
2023-06-21T01:53:02.492Z,101451.56
2023-06-21T01:55:31.374Z,101446.94
2023-06-21T01:57:58.312Z,101444.72
2023-06-21T02:00:28.437Z,101446.63
2023-06-21T02:03:05.971Z,101458.22
2023-06-21T02:05:35.082Z,101451.22
2023-06-21T02:08:06.014Z,101457.06
2023-06-21T02:10:32.955Z,101463.59
2023-06-21T02:12:59.899Z,101465.53
2023-06-21T02:15:26.492Z,101468.22
2023-06-21T02:17:54.771Z,101474.41
2023-06-21T02:20:23.690Z,101472.50
2023-06-21T02:22:50.828Z,101481.72
2023-06-21T02:25:18.386Z,101482.06
2023-06-21T02:27:45.258Z,101480.13
2023-06-21T02:30:12.186Z,101491.25
2023-06-21T02:32:38.767Z,101483.53
2023-06-21T02:35:06.539Z,101492.28
2023-06-21T02:37:33.641Z,101488.78
2023-06-21T02:40:00.375Z,101497.22
2023-06-21T02:42:31.052Z,101503.41
2023-06-21T02:44:57.660Z,101497.22
2023-06-21T02:47:24.403Z,101500.69
2023-06-21T02:49:50.948Z,101496.44
2023-06-21T02:52:18.893Z,101501.38
2023-06-21T02:54:45.538Z,101501.72
2023-06-21T02:57:12.111Z,101510.94
2023-06-21T02:59:38.984Z,101510.94
2023-06-21T03:02:06.396Z,101518.69
2023-06-21T03:04:33.054Z,101510.94
2023-06-21T03:07:02.497Z,101517.47
2023-06-21T03:09:29.994Z,101514.31
2023-06-21T03:11:56.794Z,101517.78
2023-06-21T03:14:23.573Z,101512.28
2023-06-21T03:16:50.862Z,101524.97
2023-06-21T03:19:19.010Z,101521.50
2023-06-21T03:21:46.895Z,101532.66
2023-06-21T03:24:13.645Z,101529.50
2023-06-21T03:26:40.327Z,101537.13
2023-06-21T03:29:08.100Z,101534.44
2023-06-21T03:31:35.779Z,101537.47
2023-06-21T03:34:02.571Z,101542.84
2023-06-21T03:36:29.923Z,101554.75
2023-06-21T03:38:56.604Z,101557.00
2023-06-21T03:41:23.272Z,101562.41
2023-06-21T03:43:50.107Z,101575.09
2023-06-21T03:46:16.944Z,101577.34
2023-06-21T03:48:44.146Z,101573.09
2023-06-21T03:51:10.723Z,101571.94
2023-06-21T03:53:37.547Z,101577.81
2023-06-21T03:56:05.515Z,101558.59
2023-06-21T03:58:32.189Z,101570.50
2023-06-21T04:00:58.983Z,101580.81
2023-06-21T04:03:25.732Z,101585.44
2023-06-21T04:05:52.506Z,101584.66
2023-06-21T04:08:19.101Z,101589.28
2023-06-21T04:10:45.660Z,101595.47
2023-06-21T04:13:12.454Z,101596.25
2023-06-21T04:15:39.096Z,101596.91
2023-06-21T04:18:05.855Z,101598.81
2023-06-21T04:20:32.753Z,101595.19
2023-06-21T04:22:59.725Z,101594.72
2023-06-21T04:25:26.329Z,101596.63
2023-06-21T04:27:55.479Z,101597.78
2023-06-21T04:30:22.709Z,101595.53
2023-06-21T04:32:49.485Z,101596.00
2023-06-21T04:35:17.717Z,101608.03
2023-06-21T04:37:49.080Z,101614.66
2023-06-21T04:40:18.685Z,101614.47
2023-06-21T04:42:47.337Z,101616.19
2023-06-21T04:45:18.037Z,101625.53
2023-06-21T04:47:48.003Z,101627.13
2023-06-21T04:50:21.948Z,101620.91
2023-06-21T04:52:50.602Z,101617.88
2023-06-21T04:55:19.388Z,101619.91
2023-06-21T04:57:47.974Z,101611.47
2023-06-21T05:00:15.568Z,101613.84
2023-06-21T05:02:42.361Z,101605.44
2023-06-21T05:05:09.375Z,101614.78
2023-06-21T05:07:38.674Z,101618.72
2023-06-21T05:10:08.714Z,101627.28
2023-06-21T05:12:37.486Z,101624.56
2023-06-21T05:15:06.465Z,101630.44
2023-06-21T05:17:33.684Z,101631.66
2023-06-21T05:20:00.674Z,101635.63
2023-06-21T05:22:27.292Z,101641.16
2023-06-21T05:24:53.961Z,101633.50
2023-06-21T05:27:21.054Z,101631.59
2023-06-21T05:29:47.693Z,101636.34
2023-06-21T05:32:14.598Z,101630.38
2023-06-21T05:34:41.162Z,101635.91
2023-06-21T05:37:07.673Z,101641.09
2023-06-21T05:39:34.215Z,101647.53
2023-06-21T05:42:00.966Z,101643.66
2023-06-21T05:44:27.773Z,101645.94
2023-06-21T05:46:54.527Z,101649.19
2023-06-21T05:49:21.177Z,101664.41
2023-06-21T05:51:47.873Z,101671.97
2023-06-21T05:54:15.886Z,101670.50
2023-06-21T05:56:42.658Z,101666.00
2023-06-21T05:59:09.577Z,101667.78
2023-06-21T06:01:36.749Z,101673.09
2023-06-21T06:04:03.779Z,101673.34
2023-06-21T06:06:39.923Z,101684.25
2023-06-21T06:09:10.968Z,101694.59
2023-06-21T06:11:37.692Z,101690.69
2023-06-21T06:14:04.327Z,101694.75
2023-06-21T06:16:31.115Z,101698.81
2023-06-21T06:18:59.046Z,101703.97
2023-06-21T06:21:25.797Z,101707.03
2023-06-21T06:23:54.024Z,101707.69
2023-06-21T06:26:26.325Z,101716.50
2023-06-21T06:28:56.542Z,101718.66
2023-06-21T06:31:25.240Z,101713.91
2023-06-21T06:33:52.286Z,101726.31
2023-06-21T06:36:19.762Z,101731.94
2023-06-21T06:38:47.956Z,101731.47
2023-06-21T06:41:14.715Z,101729.78
2023-06-21T06:43:41.482Z,101733.16
2023-06-21T06:46:08.152Z,101728.53
2023-06-21T06:48:34.992Z,101730.16
2023-06-21T06:51:01.679Z,101743.00
2023-06-21T06:53:28.351Z,101737.19
2023-06-21T06:55:56.289Z,101740.88
2023-06-21T06:58:22.930Z,101746.84
2023-06-21T07:00:49.753Z,101746.06
2023-06-21T07:03:16.990Z,101745.31
2023-06-21T07:05:45.792Z,101753.28
2023-06-21T07:08:15.026Z,101752.72
2023-06-21T07:10:42.262Z,101758.31
2023-06-21T07:13:09.139Z,101754.13
2023-06-21T07:15:36.978Z,101764.44
2023-06-21T07:18:04.116Z,101765.44
2023-06-21T07:20:32.552Z,101768.38
2023-06-21T07:22:59.808Z,101777.13
2023-06-21T07:25:26.713Z,101783.09
2023-06-21T07:27:53.560Z,101775.03
2023-06-21T07:30:21.513Z,101768.78
2023-06-21T07:32:49.308Z,101778.75
2023-06-21T07:35:17.684Z,101774.47
2023-06-21T07:37:45.510Z,101768.72
2023-06-21T07:40:12.870Z,101766.84
2023-06-21T07:42:40.922Z,101777.28
2023-06-21T07:45:08.793Z,101779.91
2023-06-21T07:47:36.274Z,101779.75
2023-06-21T07:50:20.302Z,101780.59
2023-06-21T07:52:49.167Z,101781.94
2023-06-21T07:55:16.136Z,101788.44
2023-06-21T07:57:43.296Z,101787.63
2023-06-21T08:00:13.206Z,101785.72
2023-06-21T08:02:45.775Z,101792.94
2023-06-21T08:05:16.052Z,101794.66
2023-06-21T08:07:43.704Z,101786.69
2023-06-21T08:10:12.824Z,101786.78
2023-06-21T08:12:39.580Z,101795.38
2023-06-21T08:15:07.365Z,101790.63
2023-06-21T08:17:34.298Z,101792.81
2023-06-21T08:20:02.895Z,101796.56
2023-06-21T08:22:29.764Z,101805.22
2023-06-21T08:24:59.432Z,101798.47
2023-06-21T08:27:26.323Z,101804.97
2023-06-21T08:29:53.874Z,101808.56
2023-06-21T08:32:21.559Z,101806.38
2023-06-21T08:34:48.480Z,101806.13
2023-06-21T08:37:15.446Z,101810.19
2023-06-21T08:39:42.168Z,101812.28
2023-06-21T08:42:09.568Z,101810.31
2023-06-21T08:44:36.494Z,101822.31
2023-06-21T08:47:07.805Z,101818.34
2023-06-21T08:49:41.974Z,101824.38
2023-06-21T08:52:12.719Z,101820.81
2023-06-21T08:54:41.676Z,101822.91
2023-06-21T08:57:15.437Z,101826.47
2023-06-21T08:59:46.737Z,101820.34
2023-06-21T09:02:36.342Z,101824.38
2023-06-21T09:05:13.515Z,101822.22
2023-06-21T09:07:46.774Z,101831.53
2023-06-21T09:10:16.632Z,101824.59
2023-06-21T09:12:45.403Z,101831.16
2023-06-21T09:15:12.985Z,101828.25
2023-06-21T09:17:40.099Z,101831.84
2023-06-21T09:20:09.549Z,101831.88
2023-06-21T09:22:37.967Z,101838.13
2023-06-21T09:25:05.775Z,101829.63
2023-06-21T09:27:34.629Z,101831.19
2023-06-21T09:30:12.168Z,101835.13
2023-06-21T09:32:48.300Z,101834.03
2023-06-21T09:35:15.428Z,101835.94
2023-06-21T09:37:45.563Z,101834.81
2023-06-21T09:40:13.846Z,101840.63
2023-06-21T09:42:42.559Z,101839.50
2023-06-21T09:45:12.153Z,101843.47
2023-06-21T09:47:42.913Z,101843.88
2023-06-21T09:50:11.438Z,101842.81
2023-06-21T09:52:43.162Z,101841.31
2023-06-21T09:55:14.574Z,101847.56
2023-06-21T09:57:41.686Z,101838.66
2023-06-21T10:00:09.468Z,101849.22
2023-06-21T10:02:42.680Z,101841.81
2023-06-21T10:05:17.675Z,101854.09
2023-06-21T10:07:47.920Z,101857.56
2023-06-21T10:10:15.624Z,101857.50
2023-06-21T10:12:56.051Z,101863.84
2023-06-21T10:15:26.820Z,101864.69
2023-06-21T10:20:24.237Z,101860.22
2023-06-21T10:22:53.900Z,101864.19
2023-06-21T10:25:25.382Z,101863.91
2023-06-21T10:27:53.724Z,101864.69
2023-06-21T10:30:22.862Z,101858.44
2023-06-21T10:32:50.937Z,101870.19
2023-06-21T10:35:21.065Z,101873.72
2023-06-21T10:37:51.418Z,101871.69
2023-06-21T10:40:19.380Z,101877.50
2023-06-21T10:42:47.034Z,101871.03
2023-06-21T10:45:15.251Z,101877.25
2023-06-21T10:47:42.546Z,101869.91
2023-06-21T10:50:10.567Z,101883.56
2023-06-21T10:52:38.308Z,101881.97
2023-06-21T10:55:05.599Z,101884.66
2023-06-21T10:57:34.942Z,101885.72
2023-06-21T11:00:07.994Z,101886.81
2023-06-21T11:02:35.836Z,101891.88
2023-06-21T11:05:16.996Z,101892.66
2023-06-21T11:08:03.102Z,101893.16
2023-06-21T11:10:59.423Z,101897.84
2023-06-21T11:13:36.554Z,101902.59
2023-06-21T11:16:18.965Z,101904.97
2023-06-21T11:19:01.088Z,101902.69
2023-06-21T11:21:46.845Z,101896.09
2023-06-21T11:24:19.294Z,101901.25
2023-06-21T11:26:52.507Z,101905.91
2023-06-21T11:29:19.345Z,101904.31
2023-06-21T11:31:47.839Z,101908.19
2023-06-21T11:34:24.761Z,101907.44
2023-06-21T11:37:19.129Z,101911.78
2023-06-21T11:39:46.436Z,101911.88
2023-06-21T11:42:16.915Z,101909.50
2023-06-21T11:44:44.149Z,101914.16
2023-06-21T11:47:20.135Z,101913.38
2023-06-21T11:49:52.103Z,101904.03
2023-06-21T11:52:26.282Z,101901.72
2023-06-21T11:54:53.141Z,101896.72
2023-06-21T11:57:19.999Z,101906.91
2023-06-21T11:59:46.932Z,101897.22
2023-06-21T12:02:18.377Z,101910.50
2023-06-21T12:04:45.489Z,101906.63
2023-06-21T12:07:12.433Z,101902.34
2023-06-21T12:09:40.333Z,101904.69
2023-06-21T12:12:11.113Z,101911.38
2023-06-21T12:14:38.814Z,101911.38
2023-06-21T12:17:06.601Z,101910.22
2023-06-21T12:19:34.011Z,101903.56
2023-06-21T12:22:04.258Z,101914.91
2023-06-21T12:24:32.376Z,101916.88
2023-06-21T12:27:04.999Z,101923.16
2023-06-21T12:29:37.351Z,101923.94
2023-06-21T12:32:04.778Z,101925.88
2023-06-21T12:34:33.236Z,101936.03
2023-06-21T12:37:00.374Z,101939.97
2023-06-21T12:39:30.435Z,101931.00
2023-06-21T12:42:06.139Z,101925.16
2023-06-21T12:44:52.290Z,101938.06
2023-06-21T12:47:19.439Z,101942.81
2023-06-21T12:49:49.870Z,101937.72
2023-06-21T12:52:27.398Z,101943.63
2023-06-21T12:55:00.523Z,101959.69
2023-06-21T12:57:34.007Z,101955.75
2023-06-21T13:00:00.924Z,101956.94
2023-06-21T13:02:30.660Z,101960.09
2023-06-21T13:05:01.994Z,101960.09
2023-06-21T13:07:43.538Z,101971.41
2023-06-21T13:10:31.331Z,101963.22
2023-06-21T13:12:58.622Z,101977.69
2023-06-21T13:15:46.911Z,101973.75
2023-06-21T13:19:16.233Z,101978.06
2023-06-21T13:26:10.774Z,101978.84
2023-06-21T13:28:27.770Z,101976.06
2023-06-21T13:31:25.432Z,101974.91
2023-06-21T13:33:58.067Z,101977.28
2023-06-21T13:36:31.287Z,101981.97
2023-06-21T13:40:18.723Z,101981.22
2023-06-21T13:42:53.109Z,101981.19
2023-06-21T13:45:57.174Z,101966.72
2023-06-21T13:51:46.312Z,101975.75
2023-06-21T13:54:52.740Z,101972.22
2023-06-21T14:23:00.417Z,101993.78
2023-06-21T15:15:10.506Z,102015.72
2023-06-21T15:17:38.621Z,102012.94
2023-06-21T15:20:06.979Z,102022.72
2023-06-21T15:22:45.054Z,102021.13
2023-06-21T15:25:14.402Z,102023.47
2023-06-21T15:27:46.614Z,102016.41
2023-06-21T15:30:37.321Z,102021.13
2023-06-21T15:33:15.382Z,102028.94
2023-06-21T15:35:46.215Z,102028.91
2023-06-21T15:38:18.072Z,102025.00
2023-06-21T15:41:05.721Z,102013.66
2023-06-21T15:46:56.763Z,102017.19
2023-06-21T15:50:01.872Z,102024.59
2023-06-21T15:52:42.456Z,102016.72
2023-06-21T15:55:27.773Z,102017.16
2023-06-21T15:58:22.182Z,102017.53
2023-06-21T16:01:17.480Z,102013.63
2023-06-21T16:03:48.030Z,102011.66
2023-06-21T16:06:21.391Z,102021.84
2023-06-21T16:11:31.894Z,102019.13
2023-06-21T16:14:12.546Z,102018.72
2023-06-21T16:16:47.986Z,102012.81
2023-06-21T16:22:18.389Z,102015.94
2023-06-21T16:25:08.636Z,102020.56
2023-06-21T16:27:51.330Z,102022.50
2023-06-21T16:30:33.468Z,102027.56
2023-06-21T16:33:19.324Z,102022.84
2023-06-21T16:36:11.902Z,102018.94
2023-06-21T16:38:41.796Z,102025.59
2023-06-21T16:41:21.931Z,102030.75
2023-06-21T16:43:53.632Z,102040.16
2023-06-21T16:46:45.377Z,102026.81
2023-06-21T16:49:12.645Z,102029.81
2023-06-21T16:51:45.713Z,102030.06
2023-06-21T16:54:21.232Z,102027.69
2023-06-21T16:57:28.537Z,102033.72
2023-06-21T17:00:00.899Z,102042.41
2023-06-21T17:02:34.682Z,102031.88
2023-06-21T17:05:25.431Z,102033.38
2023-06-21T17:07:56.818Z,102032.56
2023-06-21T17:10:25.930Z,102041.66
2023-06-21T17:12:55.573Z,102040.94
2023-06-21T17:15:35.869Z,102040.97
2023-06-21T17:18:09.675Z,102053.06
2023-06-21T17:20:50.787Z,102063.22
2023-06-21T17:23:30.146Z,102055.75
2023-06-21T17:26:00.369Z,102057.69
2023-06-21T17:32:00.619Z,102050.50
2023-06-21T17:34:52.115Z,102052.91
2023-06-21T17:47:24.050Z,102057.28
2023-06-21T17:51:53.229Z,102060.31
2023-06-21T17:59:54.750Z,102049.50
2023-06-21T18:02:36.439Z,102052.59
2023-06-21T18:05:43.131Z,102056.44
2023-06-21T18:15:26.890Z,102038.66
2023-06-21T18:22:13.435Z,102046.28
2023-06-21T18:50:56.864Z,102024.31
2023-06-21T18:53:25.962Z,102028.16
2023-06-21T18:55:52.925Z,102027.38
2023-06-21T18:58:20.527Z,102019.94
2023-06-21T19:00:47.371Z,102030.28
2023-06-21T19:03:14.194Z,102024.38
2023-06-21T19:05:41.099Z,102023.44
2023-06-21T19:08:08.756Z,102017.56
2023-06-21T19:10:35.446Z,102019.47
2023-06-21T19:13:02.156Z,102018.16
2023-06-21T19:15:28.895Z,102010.63
2023-06-21T19:17:56.826Z,102013.72
2023-06-21T19:20:23.709Z,102007.34
2023-06-21T19:22:50.633Z,102010.34
2023-06-21T19:25:17.750Z,102006.00
2023-06-21T19:27:45.672Z,102012.50
2023-06-21T19:30:13.720Z,102013.66
2023-06-21T19:32:42.714Z,102015.97
2023-06-21T19:35:12.265Z,102017.00
2023-06-21T19:37:39.253Z,102018.47
2023-06-21T19:40:06.655Z,102014.81
2023-06-21T19:42:33.627Z,102019.75
2023-06-21T19:45:00.395Z,102020.81
2023-06-21T19:47:31.937Z,102019.19
2023-06-21T19:49:58.686Z,102016.03
2023-06-21T19:52:25.653Z,102025.28
2023-06-21T19:54:52.285Z,102024.06
2023-06-21T19:57:20.240Z,102025.94
2023-06-21T19:59:46.930Z,102030.47
2023-06-21T20:02:13.574Z,102029.94
2023-06-21T20:04:40.335Z,102046.53
2023-06-21T20:07:07.124Z,102041.75
2023-06-21T20:09:33.728Z,102044.63
2023-06-21T20:12:00.339Z,102054.16
2023-06-21T20:14:26.889Z,102045.75
2023-06-21T20:16:53.619Z,102048.59
2023-06-21T20:19:20.458Z,102053.53
2023-06-21T20:21:47.168Z,102059.19
2023-06-21T20:24:17.381Z,102054.31
2023-06-21T20:26:44.138Z,102058.00
2023-06-21T20:29:10.947Z,102053.59
2023-06-21T20:31:37.730Z,102055.72
2023-06-21T20:34:04.581Z,102055.91
2023-06-21T20:36:34.305Z,102057.22
2023-06-21T20:39:06.426Z,102067.47
2023-06-21T20:41:33.573Z,102075.09
2023-06-21T20:44:01.329Z,102082.28
2023-06-21T20:46:29.463Z,102089.09
2023-06-21T20:48:59.552Z,102082.00
2023-06-21T20:51:26.658Z,102084.19
2023-06-21T20:53:53.517Z,102083.72
2023-06-21T20:56:20.494Z,102091.53
2023-06-21T20:58:47.770Z,102088.38
2023-06-21T21:01:15.267Z,102096.09
2023-06-21T21:03:43.284Z,102091.72
2023-06-21T21:06:10.691Z,102097.03
2023-06-21T21:08:39.046Z,102101.84
2023-06-21T21:11:07.282Z,102106.59
2023-06-21T21:13:34.861Z,102113.06
2023-06-21T21:16:01.611Z,102123.03
2023-06-21T21:18:28.469Z,102134.59
2023-06-21T21:20:55.421Z,102131.88
2023-06-21T21:23:22.235Z,102133.00
2023-06-21T21:25:49.489Z,102126.00
2023-06-21T21:28:16.374Z,102122.41
2023-06-21T21:30:43.200Z,102130.88
2023-06-21T21:33:10.121Z,102119.47
2023-06-21T21:35:37.110Z,102119.38
2023-06-21T21:38:07.233Z,102117.34
2023-06-21T21:40:34.163Z,102115.31
2023-06-21T21:43:01.131Z,102110.56
2023-06-21T21:45:27.894Z,102117.28
2023-06-21T21:47:54.792Z,102121.13
2023-06-21T21:50:22.052Z,102116.59
2023-06-21T21:52:48.736Z,102123.34
2023-06-21T21:55:18.375Z,102114.88
2023-06-21T21:57:45.221Z,102123.50
2023-06-21T22:00:12.739Z,102122.69
2023-06-21T22:02:39.946Z,102114.09
2023-06-21T22:05:07.946Z,102124.84
2023-06-21T22:07:35.036Z,102131.72
2023-06-21T22:10:03.049Z,102133.22
2023-06-21T22:12:30.107Z,102142.47
2023-06-21T22:14:56.858Z,102146.31
2023-06-21T22:17:23.943Z,102136.91
2023-06-21T22:19:50.533Z,102135.69
2023-06-21T22:22:24.822Z,102130.13
2023-06-21T22:24:51.442Z,102128.09
2023-06-21T22:27:18.486Z,102132.28
2023-06-21T22:29:45.238Z,102130.25
2023-06-21T22:32:12.064Z,102131.25
2023-06-21T22:34:39.010Z,102130.81
2023-06-21T22:37:06.174Z,102135.66
2023-06-21T22:39:33.585Z,102143.22
2023-06-21T22:42:00.562Z,102148.19
2023-06-21T22:44:27.298Z,102144.22
2023-06-21T22:46:54.322Z,102148.72
2023-06-21T22:49:24.070Z,102151.34
2023-06-21T22:51:50.736Z,102148.16
2023-06-21T22:54:17.518Z,102150.75
2023-06-21T22:56:44.122Z,102148.38
2023-06-21T22:59:10.751Z,102142.72
2023-06-21T23:01:37.474Z,102146.41
2023-06-21T23:04:04.451Z,102147.84
2023-06-21T23:06:31.049Z,102140.38
2023-06-21T23:08:58.049Z,102143.28
2023-06-21T23:11:27.579Z,102147.34
2023-06-21T23:13:58.923Z,102144.50
2023-06-21T23:16:26.819Z,102145.63
2023-06-21T23:18:57.420Z,102149.56
2023-06-21T23:21:27.081Z,102146.78
2023-06-21T23:23:54.545Z,102147.97
2023-06-21T23:26:27.273Z,102148.63
2023-06-21T23:28:56.306Z,102151.00
2023-06-21T23:31:23.828Z,102153.06
2023-06-21T23:33:50.578Z,102151.47
2023-06-21T23:36:17.338Z,102145.59
2023-06-21T23:38:55.824Z,102159.91
2023-06-21T23:41:24.015Z,102164.06
2023-06-21T23:44:00.301Z,102156.75
2023-06-21T23:46:30.829Z,102163.94
2023-06-21T23:48:59.252Z,102161.28
2023-06-21T23:51:31.713Z,102156.22
2023-06-21T23:53:58.586Z,102157.06
2023-06-21T23:56:27.949Z,102164.84
2023-06-21T23:58:55.343Z,102158.63
